createdAt,value
2022-12-03T14:08:39.578Z,-6.09
2022-12-03T14:11:07.392Z,-5.97
2022-12-03T14:13:35.073Z,-5.83
2022-12-03T14:16:02.726Z,-5.69
2022-12-03T14:18:30.375Z,-5.58
2022-12-03T14:20:58.103Z,-5.46
2022-12-03T14:23:26.002Z,-5.44
2022-12-03T14:25:53.805Z,-5.43
2022-12-03T14:28:21.405Z,-5.44
2022-12-03T14:30:49.071Z,-5.42
2022-12-03T14:33:17.227Z,-5.43
2022-12-03T14:35:44.885Z,-5.47
2022-12-03T14:38:14.671Z,-5.46
2022-12-03T14:40:42.698Z,-5.42
2022-12-03T14:43:10.793Z,-5.45
2022-12-03T14:45:39.004Z,-5.41
2022-12-03T14:48:07.122Z,-5.37
2022-12-03T14:50:34.955Z,-5.36
2022-12-03T14:53:02.585Z,-5.39
2022-12-03T14:55:30.215Z,-5.39
2022-12-03T14:57:57.813Z,-5.43
2022-12-03T15:00:25.533Z,-5.49
2022-12-03T15:02:53.199Z,-5.52
2022-12-03T15:05:26.608Z,-5.55
2022-12-03T15:07:56.438Z,-5.56
2022-12-03T15:10:24.094Z,-5.52
2022-12-03T15:12:51.722Z,-5.43
2022-12-03T15:15:19.446Z,-5.37
2022-12-03T15:17:47.467Z,-5.37
2022-12-03T15:20:15.314Z,-5.36
2022-12-03T15:22:44.049Z,-5.38
2022-12-03T15:25:12.383Z,-5.42
2022-12-03T15:27:41.671Z,-5.49
2022-12-03T15:30:09.808Z,-5.54
2022-12-03T15:32:37.426Z,-5.58
2022-12-03T15:35:06.980Z,-5.62
2022-12-03T15:37:34.817Z,-5.59
2022-12-03T15:40:02.482Z,-5.54
2022-12-03T15:42:30.149Z,-5.49
2022-12-03T15:44:57.796Z,-5.49
2022-12-03T15:47:25.608Z,-5.46
2022-12-03T15:49:53.449Z,-5.50
2022-12-03T15:52:21.137Z,-5.47
2022-12-03T15:54:49.950Z,-5.45
2022-12-03T15:57:17.841Z,-5.46
2022-12-03T15:59:45.427Z,-5.46
2022-12-03T16:02:13.140Z,-5.42
2022-12-03T16:04:40.814Z,-5.36
2022-12-03T16:07:09.582Z,-5.32
2022-12-03T16:09:37.451Z,-5.21
2022-12-03T16:12:05.291Z,-5.14
2022-12-03T16:14:32.958Z,-5.16
2022-12-03T16:17:00.661Z,-5.16
2022-12-03T16:19:28.462Z,-5.14
2022-12-03T16:21:56.065Z,-5.15
2022-12-03T16:24:23.647Z,-5.19
2022-12-03T16:26:52.250Z,-5.23
2022-12-03T16:29:19.818Z,-5.19
2022-12-03T16:31:47.806Z,-5.18
2022-12-03T16:34:15.508Z,-5.24
2022-12-03T16:36:43.504Z,-5.28
2022-12-03T16:39:11.291Z,-5.39
2022-12-03T16:41:39.988Z,-5.45
2022-12-03T16:44:07.702Z,-5.42
2022-12-03T16:46:35.564Z,-5.41
2022-12-03T16:49:04.160Z,-5.39
2022-12-03T16:51:31.790Z,-5.38
2022-12-03T16:53:59.381Z,-5.39
2022-12-03T16:56:27.001Z,-5.39
2022-12-03T16:58:54.634Z,-5.44
2022-12-03T17:01:23.603Z,-5.40
2022-12-03T17:03:51.357Z,-5.39
2022-12-03T17:06:18.989Z,-5.38
2022-12-03T17:08:49.563Z,-5.40
2022-12-03T17:11:17.973Z,-5.39
2022-12-03T17:13:46.147Z,-5.37
2022-12-03T17:16:13.795Z,-5.37
2022-12-03T17:18:41.696Z,-5.39
2022-12-03T17:21:09.309Z,-5.35
2022-12-03T17:23:36.876Z,-5.37
2022-12-03T17:26:04.608Z,-5.35
2022-12-03T17:28:32.204Z,-5.28
2022-12-03T17:30:59.834Z,-5.22
2022-12-03T17:33:27.494Z,-5.17
2022-12-03T17:35:55.086Z,-5.19
2022-12-03T17:38:22.682Z,-5.25
2022-12-03T17:40:50.322Z,-5.26
2022-12-03T17:43:17.930Z,-5.25
2022-12-03T17:45:45.540Z,-5.18
2022-12-03T17:48:13.207Z,-5.10
2022-12-03T17:50:40.841Z,-5.10
2022-12-03T17:53:10.592Z,-5.13
2022-12-03T17:55:44.277Z,-5.11
2022-12-03T17:58:13.491Z,-5.08
2022-12-03T18:00:41.359Z,-5.12
2022-12-03T18:03:09.452Z,-5.20
2022-12-03T18:05:37.085Z,-5.22
2022-12-03T18:08:05.047Z,-5.21
2022-12-03T18:10:32.696Z,-5.16
2022-12-03T18:13:02.243Z,-5.20
2022-12-03T18:15:31.241Z,-5.19
2022-12-03T18:17:58.900Z,-5.32
2022-12-03T18:20:26.654Z,-5.28
2022-12-03T18:22:54.295Z,-5.22
2022-12-03T18:25:21.897Z,-5.28
2022-12-03T18:27:49.464Z,-5.31
2022-12-03T18:30:17.136Z,-5.35
2022-12-03T18:32:44.780Z,-5.31
2022-12-03T18:35:12.408Z,-5.21
2022-12-03T18:37:40.161Z,-5.15
2022-12-03T18:40:14.289Z,-5.07
2022-12-03T18:42:41.902Z,-4.99
2022-12-03T18:45:13.380Z,-4.94
2022-12-03T18:47:41.165Z,-4.89
2022-12-03T18:50:09.895Z,-4.83
2022-12-03T18:52:37.840Z,-4.77
2022-12-03T18:55:06.937Z,-4.89
2022-12-03T18:57:34.627Z,-4.89
2022-12-03T19:00:02.507Z,-4.89
2022-12-03T19:03:01.145Z,-4.86
2022-12-03T19:05:17.742Z,-4.87
2022-12-03T19:07:45.408Z,-4.89
2022-12-03T19:10:13.130Z,-5.01
2022-12-03T19:12:40.713Z,-5.06
2022-12-03T19:15:09.240Z,-5.05
2022-12-03T19:17:39.515Z,-5.06
2022-12-03T19:20:09.375Z,-5.15
2022-12-03T19:22:37.491Z,-5.12
2022-12-03T19:25:05.473Z,-5.05
2022-12-03T19:27:33.073Z,-5.10
2022-12-03T19:30:00.662Z,-5.08
2022-12-03T19:32:28.323Z,-5.08
2022-12-03T19:34:55.971Z,-5.04
2022-12-03T19:37:23.552Z,-4.99
2022-12-03T19:39:54.211Z,-4.94
2022-12-03T19:42:22.098Z,-4.87
2022-12-03T19:44:49.616Z,-4.77
2022-12-03T19:47:17.290Z,-4.79
2022-12-03T19:49:44.858Z,-4.86
2022-12-03T19:52:12.468Z,-4.96
2022-12-03T19:54:40.047Z,-5.03
2022-12-03T19:57:07.727Z,-5.05
2022-12-03T19:59:35.366Z,-5.08
2022-12-03T20:02:03.169Z,-5.05
2022-12-03T20:04:30.904Z,-5.03
2022-12-03T20:06:58.587Z,-5.01
2022-12-03T20:09:26.182Z,-5.04
2022-12-03T20:11:54.074Z,-5.06
2022-12-03T20:14:22.069Z,-5.05
2022-12-03T20:16:49.938Z,-5.03
2022-12-03T20:19:18.325Z,-4.98
2022-12-03T20:21:46.048Z,-4.90
2022-12-03T20:24:16.875Z,-4.88
2022-12-03T20:26:44.937Z,-4.81
2022-12-03T20:29:12.602Z,-4.79
2022-12-03T20:31:40.280Z,-4.78
2022-12-03T20:34:07.995Z,-4.76
2022-12-03T20:36:35.930Z,-4.74
2022-12-03T20:39:06.349Z,-4.77
2022-12-03T20:41:38.212Z,-4.79
2022-12-03T20:44:07.687Z,-4.74
2022-12-03T20:46:36.347Z,-4.78
2022-12-03T20:49:04.316Z,-4.82
2022-12-03T20:51:32.447Z,-4.89
2022-12-03T20:54:00.847Z,-4.84
2022-12-03T20:56:35.002Z,-4.78
2022-12-03T20:59:07.719Z,-4.70
2022-12-03T21:01:36.494Z,-4.75
2022-12-03T21:04:06.966Z,-4.79
2022-12-03T21:06:36.028Z,-4.88
2022-12-03T21:09:06.424Z,-4.86
2022-12-03T21:11:36.064Z,-4.81
2022-12-03T21:14:04.383Z,-4.79
2022-12-03T21:17:06.133Z,-4.78
2022-12-03T21:19:23.037Z,-4.75
2022-12-03T21:21:50.689Z,-4.73
2022-12-03T21:24:18.377Z,-4.69
2022-12-03T21:26:45.990Z,-4.61
2022-12-03T21:29:13.564Z,-4.64
2022-12-03T21:31:41.249Z,-4.62
2022-12-03T21:34:08.985Z,-4.64
2022-12-03T21:36:36.668Z,-4.62
2022-12-03T21:39:05.178Z,-4.65
2022-12-03T21:41:35.285Z,-4.68
2022-12-03T21:44:03.799Z,-4.76
2022-12-03T21:47:12.342Z,-4.77
2022-12-03T21:49:20.427Z,-4.70
2022-12-03T21:51:48.486Z,-4.61
2022-12-03T21:54:16.150Z,-4.52
2022-12-03T21:56:43.758Z,-4.56
2022-12-03T21:59:11.343Z,-4.59
2022-12-03T22:01:41.649Z,-4.67
2022-12-03T22:04:13.227Z,-4.75
2022-12-03T22:06:40.825Z,-4.76
2022-12-03T22:09:08.439Z,-4.73
2022-12-03T22:11:36.155Z,-4.71
2022-12-03T22:14:04.929Z,-4.69
2022-12-03T22:16:32.730Z,-4.69
2022-12-03T22:19:00.385Z,-4.64
2022-12-03T22:21:28.097Z,-4.53
2022-12-03T22:23:56.265Z,-4.48
2022-12-03T22:26:23.865Z,-4.53
2022-12-03T22:28:51.654Z,-4.51
2022-12-03T22:31:19.405Z,-4.48
2022-12-03T22:33:48.641Z,-4.44
2022-12-03T22:36:21.295Z,-4.49
2022-12-03T22:38:51.621Z,-4.50
2022-12-03T22:41:20.109Z,-4.49
2022-12-03T22:43:48.943Z,-4.48
2022-12-03T22:46:17.824Z,-4.45
2022-12-03T22:48:47.244Z,-4.45
2022-12-03T22:51:23.767Z,-4.41
2022-12-03T22:53:56.150Z,-4.37
2022-12-03T22:56:24.415Z,-4.33
2022-12-03T22:58:52.018Z,-4.30
2022-12-03T23:01:28.885Z,-4.36
2022-12-03T23:03:57.004Z,-4.34
2022-12-03T23:06:24.954Z,-4.39
2022-12-03T23:08:52.702Z,-4.33
2022-12-03T23:11:20.770Z,-4.32
2022-12-03T23:13:48.716Z,-4.30
2022-12-03T23:16:23.366Z,-4.28
2022-12-03T23:18:50.996Z,-4.24
2022-12-03T23:21:27.228Z,-4.22
2022-12-03T23:23:58.767Z,-4.22
2022-12-03T23:26:26.817Z,-4.17
2022-12-03T23:28:54.897Z,-4.15
2022-12-03T23:31:24.376Z,-4.18
2022-12-03T23:33:52.928Z,-4.06
2022-12-03T23:36:22.235Z,-4.03
2022-12-03T23:38:50.281Z,-4.02
2022-12-03T23:41:20.366Z,-4.09
2022-12-03T23:43:48.438Z,-4.10
2022-12-03T23:46:19.296Z,-4.04
2022-12-03T23:48:46.935Z,-4.04
2022-12-03T23:51:25.764Z,-4.05
2022-12-03T23:53:55.424Z,-4.01
2022-12-03T23:56:26.284Z,-3.93
2022-12-03T23:58:53.931Z,-3.87
